sensor_id;sensor_type;location;lat;lon;timestamp;P1;durP1;ratioP1;P2;durP2;ratioP2
24102;SDS011;12278;53.058;9.028;2023-07-22T00:01:00;10.80;;;6.00;;
24102;SDS011;12278;53.058;9.028;2023-07-22T00:05:00;8.13;;;7.00;;
24102;SDS011;12278;53.058;9.028;2023-07-22T00:09:01;7.10;;;5.78;;
24102;SDS011;12278;53.058;9.028;2023-07-22T00:13:02;9.13;;;6.50;;
24102;SDS011;12278;53.058;9.028;2023-07-22T00:17:03;8.55;;;5.63;;
24102;SDS011;12278;53.058;9.028;2023-07-22T00:21:04;7.75;;;6.18;;
24102;SDS011;12278;53.058;9.028;2023-07-22T00:25:09;6.93;;;5.55;;
24102;SDS011;12278;53.058;9.028;2023-07-22T00:29:10;7.07;;;5.97;;
24102;SDS011;12278;53.058;9.028;2023-07-22T00:33:11;7.90;;;6.18;;
24102;SDS011;12278;53.058;9.028;2023-07-22T00:37:13;8.15;;;6.55;;
24102;SDS011;12278;53.058;9.028;2023-07-22T00:41:14;7.28;;;4.97;;
24102;SDS011;12278;53.058;9.028;2023-07-22T00:45:15;9.02;;;6.05;;
24102;SDS011;12278;53.058;9.028;2023-07-22T00:49:16;12.88;;;7.95;;
24102;SDS011;12278;53.058;9.028;2023-07-22T00:53:17;16.38;;;7.90;;
24102;SDS011;12278;53.058;9.028;2023-07-22T00:57:18;9.25;;;6.93;;
24102;SDS011;12278;53.058;9.028;2023-07-22T01:01:20;10.40;;;6.97;;
24102;SDS011;12278;53.058;9.028;2023-07-22T01:05:21;9.88;;;6.82;;
24102;SDS011;12278;53.058;9.028;2023-07-22T01:09:22;11.52;;;7.35;;
24102;SDS011;12278;53.058;9.028;2023-07-22T01:13:22;11.65;;;7.20;;
24102;SDS011;12278;53.058;9.028;2023-07-22T01:17:23;8.48;;;6.07;;
24102;SDS011;12278;53.058;9.028;2023-07-22T01:21:24;8.52;;;6.55;;
24102;SDS011;12278;53.058;9.028;2023-07-22T01:25:25;8.90;;;6.20;;
24102;SDS011;12278;53.058;9.028;2023-07-22T01:29:27;8.25;;;5.35;;
24102;SDS011;12278;53.058;9.028;2023-07-22T01:33:27;8.60;;;6.10;;
24102;SDS011;12278;53.058;9.028;2023-07-22T01:37:28;9.02;;;5.63;;
24102;SDS011;12278;53.058;9.028;2023-07-22T01:41:28;8.93;;;5.57;;
24102;SDS011;12278;53.058;9.028;2023-07-22T01:45:29;12.68;;;6.30;;
24102;SDS011;12278;53.058;9.028;2023-07-22T01:49:30;13.73;;;6.28;;
24102;SDS011;12278;53.058;9.028;2023-07-22T01:53:30;9.02;;;5.25;;
24102;SDS011;12278;53.058;9.028;2023-07-22T01:57:32;10.55;;;5.43;;
24102;SDS011;12278;53.058;9.028;2023-07-22T02:01:33;7.60;;;5.30;;
24102;SDS011;12278;53.058;9.028;2023-07-22T02:05:34;9.82;;;5.80;;
24102;SDS011;12278;53.058;9.028;2023-07-22T02:09:35;9.82;;;5.35;;
24102;SDS011;12278;53.058;9.028;2023-07-22T02:13:36;10.05;;;5.15;;
24102;SDS011;12278;53.058;9.028;2023-07-22T02:17:37;11.55;;;5.55;;
24102;SDS011;12278;53.058;9.028;2023-07-22T02:21:37;11.57;;;5.68;;
24102;SDS011;12278;53.058;9.028;2023-07-22T02:25:38;7.70;;;5.35;;
24102;SDS011;12278;53.058;9.028;2023-07-22T02:29:39;8.68;;;5.43;;
24102;SDS011;12278;53.058;9.028;2023-07-22T02:33:39;10.20;;;5.35;;
24102;SDS011;12278;53.058;9.028;2023-07-22T02:37:40;12.20;;;5.05;;
24102;SDS011;12278;53.058;9.028;2023-07-22T02:41:41;7.93;;;5.53;;
24102;SDS011;12278;53.058;9.028;2023-07-22T02:45:42;10.45;;;6.20;;
24102;SDS011;12278;53.058;9.028;2023-07-22T02:49:42;9.35;;;5.00;;
24102;SDS011;12278;53.058;9.028;2023-07-22T02:53:43;11.20;;;5.50;;
24102;SDS011;12278;53.058;9.028;2023-07-22T02:57:47;8.18;;;5.88;;
24102;SDS011;12278;53.058;9.028;2023-07-22T03:01:47;12.82;;;5.95;;
24102;SDS011;12278;53.058;9.028;2023-07-22T03:05:48;9.27;;;6.07;;
24102;SDS011;12278;53.058;9.028;2023-07-22T03:09:49;8.38;;;5.68;;
24102;SDS011;12278;53.058;9.028;2023-07-22T03:13:49;10.35;;;6.05;;
24102;SDS011;12278;53.058;9.028;2023-07-22T03:17:50;14.18;;;7.15;;
24102;SDS011;12278;53.058;9.028;2023-07-22T03:21:50;8.13;;;5.25;;
24102;SDS011;12278;53.058;9.028;2023-07-22T03:25:51;6.75;;;5.30;;
24102;SDS011;12278;53.058;9.028;2023-07-22T03:29:52;10.68;;;5.95;;
24102;SDS011;12278;53.058;9.028;2023-07-22T03:33:52;8.80;;;5.50;;
24102;SDS011;12278;53.058;9.028;2023-07-22T03:37:53;9.35;;;5.82;;
24102;SDS011;12278;53.058;9.028;2023-07-22T03:41:54;12.15;;;6.05;;
24102;SDS011;12278;53.058;9.028;2023-07-22T03:45:54;10.60;;;5.82;;
24102;SDS011;12278;53.058;9.028;2023-07-22T03:49:55;9.80;;;5.53;;
24102;SDS011;12278;53.058;9.028;2023-07-22T03:53:55;10.27;;;5.47;;
24102;SDS011;12278;53.058;9.028;2023-07-22T03:57:56;9.80;;;5.88;;
24102;SDS011;12278;53.058;9.028;2023-07-22T04:01:57;11.73;;;6.30;;
24102;SDS011;12278;53.058;9.028;2023-07-22T04:05:57;7.25;;;4.95;;
24102;SDS011;12278;53.058;9.028;2023-07-22T04:09:58;10.80;;;6.43;;
24102;SDS011;12278;53.058;9.028;2023-07-22T04:13:59;11.52;;;6.53;;
24102;SDS011;12278;53.058;9.028;2023-07-22T04:17:59;9.25;;;5.30;;
24102;SDS011;12278;53.058;9.028;2023-07-22T04:22:00;10.23;;;6.00;;
24102;SDS011;12278;53.058;9.028;2023-07-22T04:26:04;11.88;;;5.97;;
24102;SDS011;12278;53.058;9.028;2023-07-22T04:30:05;9.60;;;5.55;;
24102;SDS011;12278;53.058;9.028;2023-07-22T04:34:06;8.75;;;6.40;;
24102;SDS011;12278;53.058;9.028;2023-07-22T04:38:07;8.50;;;6.10;;
24102;SDS011;12278;53.058;9.028;2023-07-22T04:42:08;10.13;;;5.85;;
24102;SDS011;12278;53.058;9.028;2023-07-22T04:46:09;9.13;;;5.82;;
24102;SDS011;12278;53.058;9.028;2023-07-22T04:50:09;10.52;;;6.22;;
24102;SDS011;12278;53.058;9.028;2023-07-22T04:54:10;12.77;;;6.63;;
24102;SDS011;12278;53.058;9.028;2023-07-22T04:58:11;7.43;;;5.68;;
24102;SDS011;12278;53.058;9.028;2023-07-22T05:02:12;10.98;;;6.03;;
24102;SDS011;12278;53.058;9.028;2023-07-22T05:06:13;10.57;;;6.15;;
24102;SDS011;12278;53.058;9.028;2023-07-22T05:10:13;7.53;;;5.85;;
24102;SDS011;12278;53.058;9.028;2023-07-22T05:14:14;7.78;;;6.05;;
24102;SDS011;12278;53.058;9.028;2023-07-22T05:18:15;10.95;;;5.97;;
24102;SDS011;12278;53.058;9.028;2023-07-22T05:22:15;7.82;;;5.65;;
24102;SDS011;12278;53.058;9.028;2023-07-22T05:26:16;13.25;;;6.53;;
24102;SDS011;12278;53.058;9.028;2023-07-22T05:30:17;12.23;;;6.43;;
24102;SDS011;12278;53.058;9.028;2023-07-22T05:34:17;9.43;;;5.60;;
24102;SDS011;12278;53.058;9.028;2023-07-22T05:38:18;7.20;;;5.25;;
24102;SDS011;12278;53.058;9.028;2023-07-22T05:42:19;11.00;;;5.80;;
24102;SDS011;12278;53.058;9.028;2023-07-22T05:46:19;12.90;;;5.15;;
24102;SDS011;12278;53.058;9.028;2023-07-22T05:50:20;7.67;;;5.23;;
24102;SDS011;12278;53.058;9.028;2023-07-22T05:54:21;12.10;;;6.18;;
24102;SDS011;12278;53.058;9.028;2023-07-22T05:58:21;8.60;;;5.80;;
24102;SDS011;12278;53.058;9.028;2023-07-22T06:02:22;9.80;;;5.80;;
24102;SDS011;12278;53.058;9.028;2023-07-22T06:06:23;10.52;;;6.03;;
24102;SDS011;12278;53.058;9.028;2023-07-22T06:10:23;6.20;;;4.80;;
24102;SDS011;12278;53.058;9.028;2023-07-22T06:14:24;7.50;;;4.40;;
24102;SDS011;12278;53.058;9.028;2023-07-22T06:18:25;8.10;;;5.20;;
24102;SDS011;12278;53.058;9.028;2023-07-22T06:22:25;6.82;;;4.55;;
24102;SDS011;12278;53.058;9.028;2023-07-22T06:26:26;7.43;;;4.18;;
24102;SDS011;12278;53.058;9.028;2023-07-22T06:30:27;6.82;;;4.70;;
24102;SDS011;12278;53.058;9.028;2023-07-22T06:34:28;6.97;;;4.50;;
24102;SDS011;12278;53.058;9.028;2023-07-22T06:38:28;8.45;;;4.32;;
24102;SDS011;12278;53.058;9.028;2023-07-22T06:42:29;6.80;;;3.83;;
24102;SDS011;12278;53.058;9.028;2023-07-22T06:46:30;5.60;;;3.53;;
24102;SDS011;12278;53.058;9.028;2023-07-22T06:50:30;7.72;;;4.20;;
24102;SDS011;12278;53.058;9.028;2023-07-22T06:54:31;5.43;;;3.65;;
24102;SDS011;12278;53.058;9.028;2023-07-22T06:58:32;6.75;;;3.92;;
24102;SDS011;12278;53.058;9.028;2023-07-22T07:02:32;8.00;;;4.35;;
24102;SDS011;12278;53.058;9.028;2023-07-22T07:06:33;7.22;;;3.88;;
24102;SDS011;12278;53.058;9.028;2023-07-22T07:10:38;5.63;;;3.85;;
24102;SDS011;12278;53.058;9.028;2023-07-22T07:14:39;5.35;;;3.30;;
24102;SDS011;12278;53.058;9.028;2023-07-22T07:18:40;4.60;;;3.28;;
24102;SDS011;12278;53.058;9.028;2023-07-22T07:22:41;4.95;;;3.05;;
24102;SDS011;12278;53.058;9.028;2023-07-22T07:26:41;8.38;;;3.72;;
24102;SDS011;12278;53.058;9.028;2023-07-22T07:30:42;5.97;;;3.42;;
24102;SDS011;12278;53.058;9.028;2023-07-22T07:34:43;5.22;;;3.10;;
24102;SDS011;12278;53.058;9.028;2023-07-22T07:38:43;4.32;;;2.88;;
24102;SDS011;12278;53.058;9.028;2023-07-22T07:42:44;6.03;;;3.15;;
24102;SDS011;12278;53.058;9.028;2023-07-22T07:46:45;4.40;;;2.38;;
24102;SDS011;12278;53.058;9.028;2023-07-22T07:50:45;4.30;;;2.25;;
24102;SDS011;12278;53.058;9.028;2023-07-22T07:54:46;4.32;;;2.65;;
24102;SDS011;12278;53.058;9.028;2023-07-22T07:58:48;3.58;;;2.20;;
24102;SDS011;12278;53.058;9.028;2023-07-22T08:02:50;3.38;;;2.60;;
24102;SDS011;12278;53.058;9.028;2023-07-22T08:06:50;4.43;;;2.42;;
24102;SDS011;12278;53.058;9.028;2023-07-22T08:11:01;2.13;;;1.80;;
24102;SDS011;12278;53.058;9.028;2023-07-22T08:15:03;2.60;;;2.40;;
24102;SDS011;12278;53.058;9.028;2023-07-22T08:19:04;4.35;;;1.83;;
24102;SDS011;12278;53.058;9.028;2023-07-22T08:23:05;2.90;;;2.10;;
24102;SDS011;12278;53.058;9.028;2023-07-22T08:27:06;3.28;;;2.05;;
24102;SDS011;12278;53.058;9.028;2023-07-22T08:35:07;2.75;;;1.92;;
24102;SDS011;12278;53.058;9.028;2023-07-22T08:39:08;5.80;;;2.70;;
24102;SDS011;12278;53.058;9.028;2023-07-22T08:43:10;2.90;;;2.20;;
24102;SDS011;12278;53.058;9.028;2023-07-22T08:47:13;5.43;;;3.00;;
24102;SDS011;12278;53.058;9.028;2023-07-22T08:51:16;5.45;;;3.35;;
24102;SDS011;12278;53.058;9.028;2023-07-22T08:55:18;3.30;;;2.70;;
24102;SDS011;12278;53.058;9.028;2023-07-22T08:59:19;4.45;;;3.28;;
24102;SDS011;12278;53.058;9.028;2023-07-22T09:03:20;5.25;;;3.30;;
24102;SDS011;12278;53.058;9.028;2023-07-22T09:07:20;6.90;;;3.70;;
24102;SDS011;12278;53.058;9.028;2023-07-22T09:11:21;4.68;;;3.83;;
24102;SDS011;12278;53.058;9.028;2023-07-22T09:15:23;6.20;;;3.70;;
24102;SDS011;12278;53.058;9.028;2023-07-22T09:19:24;4.80;;;3.50;;
24102;SDS011;12278;53.058;9.028;2023-07-22T09:23:35;6.95;;;4.38;;
24102;SDS011;12278;53.058;9.028;2023-07-22T09:27:37;6.10;;;3.17;;
24102;SDS011;12278;53.058;9.028;2023-07-22T09:31:47;5.77;;;4.40;;
24102;SDS011;12278;53.058;9.028;2023-07-22T09:35:53;7.17;;;4.37;;
24102;SDS011;12278;53.058;9.028;2023-07-22T09:39:55;5.63;;;4.40;;
24102;SDS011;12278;53.058;9.028;2023-07-22T09:43:55;7.70;;;4.60;;
24102;SDS011;12278;53.058;9.028;2023-07-22T09:56:03;7.75;;;4.75;;
24102;SDS011;12278;53.058;9.028;2023-07-22T10:00:04;9.77;;;5.50;;
24102;SDS011;12278;53.058;9.028;2023-07-22T10:04:08;8.32;;;5.47;;
24102;SDS011;12278;53.058;9.028;2023-07-22T10:08:11;6.20;;;4.70;;
24102;SDS011;12278;53.058;9.028;2023-07-22T10:12:15;6.90;;;4.93;;
24102;SDS011;12278;53.058;9.028;2023-07-22T10:16:16;6.50;;;4.93;;
24102;SDS011;12278;53.058;9.028;2023-07-22T10:20:17;6.53;;;5.45;;
24102;SDS011;12278;53.058;9.028;2023-07-22T10:24:19;8.05;;;5.28;;
24102;SDS011;12278;53.058;9.028;2023-07-22T10:28:21;8.32;;;5.50;;
24102;SDS011;12278;53.058;9.028;2023-07-22T10:32:23;9.32;;;5.65;;
24102;SDS011;12278;53.058;9.028;2023-07-22T10:36:24;7.75;;;5.55;;
24102;SDS011;12278;53.058;9.028;2023-07-22T10:40:30;9.65;;;5.90;;
24102;SDS011;12278;53.058;9.028;2023-07-22T10:44:31;7.68;;;5.50;;
24102;SDS011;12278;53.058;9.028;2023-07-22T10:48:34;6.20;;;5.30;;
24102;SDS011;12278;53.058;9.028;2023-07-22T10:52:40;11.25;;;5.60;;
24102;SDS011;12278;53.058;9.028;2023-07-22T10:56:44;8.52;;;5.63;;
24102;SDS011;12278;53.058;9.028;2023-07-22T11:00:45;6.18;;;4.68;;
24102;SDS011;12278;53.058;9.028;2023-07-22T11:04:46;7.18;;;4.72;;
24102;SDS011;12278;53.058;9.028;2023-07-22T11:08:47;6.30;;;4.50;;
24102;SDS011;12278;53.058;9.028;2023-07-22T11:12:48;6.93;;;5.30;;
24102;SDS011;12278;53.058;9.028;2023-07-22T11:16:49;5.60;;;4.00;;
24102;SDS011;12278;53.058;9.028;2023-07-22T11:20:52;7.40;;;4.65;;
24102;SDS011;12278;53.058;9.028;2023-07-22T11:24:53;5.75;;;4.45;;
24102;SDS011;12278;53.058;9.028;2023-07-22T11:28:53;4.15;;;3.38;;
24102;SDS011;12278;53.058;9.028;2023-07-22T11:32:57;7.13;;;4.22;;
24102;SDS011;12278;53.058;9.028;2023-07-22T11:36:58;4.03;;;3.42;;
24102;SDS011;12278;53.058;9.028;2023-07-22T11:40:59;5.60;;;4.10;;
24102;SDS011;12278;53.058;9.028;2023-07-22T11:45:01;7.78;;;4.25;;
24102;SDS011;12278;53.058;9.028;2023-07-22T11:49:02;3.45;;;2.97;;
24102;SDS011;12278;53.058;9.028;2023-07-22T11:53:03;3.95;;;3.45;;
24102;SDS011;12278;53.058;9.028;2023-07-22T11:57:23;6.20;;;2.92;;
24102;SDS011;12278;53.058;9.028;2023-07-22T12:01:24;5.47;;;3.23;;
24102;SDS011;12278;53.058;9.028;2023-07-22T12:05:35;3.92;;;2.65;;
24102;SDS011;12278;53.058;9.028;2023-07-22T12:09:37;5.60;;;3.25;;
24102;SDS011;12278;53.058;9.028;2023-07-22T12:13:38;4.20;;;3.65;;
24102;SDS011;12278;53.058;9.028;2023-07-22T12:21:46;5.72;;;4.13;;
24102;SDS011;12278;53.058;9.028;2023-07-22T12:25:48;3.97;;;2.97;;
24102;SDS011;12278;53.058;9.028;2023-07-22T12:29:49;3.33;;;3.03;;
24102;SDS011;12278;53.058;9.028;2023-07-22T12:33:50;4.53;;;3.08;;
24102;SDS011;12278;53.058;9.028;2023-07-22T12:37:51;4.93;;;3.47;;
24102;SDS011;12278;53.058;9.028;2023-07-22T12:41:52;3.90;;;3.35;;
24102;SDS011;12278;53.058;9.028;2023-07-22T12:45:52;4.55;;;3.53;;
24102;SDS011;12278;53.058;9.028;2023-07-22T12:49:53;5.57;;;3.42;;
24102;SDS011;12278;53.058;9.028;2023-07-22T12:53:54;4.30;;;3.60;;
24102;SDS011;12278;53.058;9.028;2023-07-22T12:57:54;4.65;;;3.50;;
24102;SDS011;12278;53.058;9.028;2023-07-22T13:01:55;3.10;;;2.80;;
24102;SDS011;12278;53.058;9.028;2023-07-22T13:05:58;4.75;;;3.80;;
24102;SDS011;12278;53.058;9.028;2023-07-22T13:09:58;3.97;;;3.58;;
24102;SDS011;12278;53.058;9.028;2023-07-22T13:14:02;3.28;;;2.97;;
24102;SDS011;12278;53.058;9.028;2023-07-22T13:18:03;4.15;;;3.47;;
24102;SDS011;12278;53.058;9.028;2023-07-22T13:22:03;4.95;;;3.95;;
24102;SDS011;12278;53.058;9.028;2023-07-22T13:26:04;4.90;;;3.40;;
24102;SDS011;12278;53.058;9.028;2023-07-22T13:30:06;4.60;;;4.03;;
24102;SDS011;12278;53.058;9.028;2023-07-22T13:34:07;7.03;;;3.85;;
24102;SDS011;12278;53.058;9.028;2023-07-22T13:38:08;6.75;;;5.82;;
24102;SDS011;12278;53.058;9.028;2023-07-22T13:42:08;6.13;;;5.53;;
24102;SDS011;12278;53.058;9.028;2023-07-22T13:46:10;9.40;;;6.32;;
24102;SDS011;12278;53.058;9.028;2023-07-22T13:50:10;7.50;;;6.57;;
24102;SDS011;12278;53.058;9.028;2023-07-22T13:54:11;9.27;;;6.90;;
24102;SDS011;12278;53.058;9.028;2023-07-22T13:58:12;9.23;;;6.85;;
24102;SDS011;12278;53.058;9.028;2023-07-22T14:02:12;9.07;;;7.03;;
24102;SDS011;12278;53.058;9.028;2023-07-22T14:06:13;9.65;;;7.30;;
24102;SDS011;12278;53.058;9.028;2023-07-22T14:10:14;8.60;;;7.22;;
24102;SDS011;12278;53.058;9.028;2023-07-22T14:14:15;9.45;;;7.47;;
24102;SDS011;12278;53.058;9.028;2023-07-22T14:18:16;10.73;;;7.50;;
24102;SDS011;12278;53.058;9.028;2023-07-22T14:22:19;10.40;;;7.20;;
24102;SDS011;12278;53.058;9.028;2023-07-22T14:26:20;10.35;;;7.88;;
24102;SDS011;12278;53.058;9.028;2023-07-22T14:30:20;10.50;;;7.57;;
24102;SDS011;12278;53.058;9.028;2023-07-22T14:34:21;11.07;;;8.00;;
24102;SDS011;12278;53.058;9.028;2023-07-22T14:38:22;10.07;;;7.72;;
24102;SDS011;12278;53.058;9.028;2023-07-22T14:42:24;11.15;;;9.65;;
24102;SDS011;12278;53.058;9.028;2023-07-22T17:34:50;8.65;;;6.97;;
24102;SDS011;12278;53.058;9.028;2023-07-22T17:38:52;9.18;;;6.88;;
24102;SDS011;12278;53.058;9.028;2023-07-22T17:42:52;9.90;;;6.65;;
24102;SDS011;12278;53.058;9.028;2023-07-22T17:46:56;8.50;;;7.53;;
24102;SDS011;12278;53.058;9.028;2023-07-22T17:50:59;9.73;;;6.82;;
24102;SDS011;12278;53.058;9.028;2023-07-22T17:54:59;9.48;;;7.50;;
24102;SDS011;12278;53.058;9.028;2023-07-22T17:59:00;10.80;;;7.25;;
24102;SDS011;12278;53.058;9.028;2023-07-22T18:03:01;9.35;;;7.40;;
24102;SDS011;12278;53.058;9.028;2023-07-22T18:07:02;10.43;;;7.68;;
24102;SDS011;12278;53.058;9.028;2023-07-22T18:11:03;9.73;;;7.07;;
24102;SDS011;12278;53.058;9.028;2023-07-22T18:15:04;10.48;;;6.82;;
24102;SDS011;12278;53.058;9.028;2023-07-22T18:19:05;9.05;;;7.38;;
24102;SDS011;12278;53.058;9.028;2023-07-22T18:23:06;9.45;;;8.15;;
24102;SDS011;12278;53.058;9.028;2023-07-22T18:27:07;9.73;;;8.38;;
24102;SDS011;12278;53.058;9.028;2023-07-22T20:27:26;10.35;;;9.00;;
24102;SDS011;12278;53.058;9.028;2023-07-22T20:31:27;11.70;;;10.50;;
24102;SDS011;12278;53.058;9.028;2023-07-22T20:35:28;11.95;;;9.60;;
24102;SDS011;12278;53.058;9.028;2023-07-22T20:39:29;12.32;;;9.63;;
24102;SDS011;12278;53.058;9.028;2023-07-22T20:47:31;11.63;;;9.13;;
24102;SDS011;12278;53.058;9.028;2023-07-22T20:51:32;10.45;;;9.20;;
24102;SDS011;12278;53.058;9.028;2023-07-22T20:55:33;12.10;;;9.02;;
24102;SDS011;12278;53.058;9.028;2023-07-22T20:59:34;11.25;;;9.75;;
24102;SDS011;12278;53.058;9.028;2023-07-22T21:03:35;11.75;;;9.68;;
24102;SDS011;12278;53.058;9.028;2023-07-22T21:07:39;13.10;;;9.73;;
24102;SDS011;12278;53.058;9.028;2023-07-22T21:11:39;11.90;;;9.70;;
24102;SDS011;12278;53.058;9.028;2023-07-22T21:15:40;11.63;;;9.30;;
24102;SDS011;12278;53.058;9.028;2023-07-22T21:19:41;10.45;;;9.43;;
24102;SDS011;12278;53.058;9.028;2023-07-22T21:23:41;10.80;;;9.70;;
24102;SDS011;12278;53.058;9.028;2023-07-22T21:27:42;14.27;;;11.03;;
24102;SDS011;12278;53.058;9.028;2023-07-22T21:31:42;13.40;;;10.20;;
24102;SDS011;12278;53.058;9.028;2023-07-22T21:35:43;11.05;;;9.45;;
24102;SDS011;12278;53.058;9.028;2023-07-22T21:39:44;13.75;;;9.85;;
24102;SDS011;12278;53.058;9.028;2023-07-22T21:43:44;15.57;;;10.32;;
24102;SDS011;12278;53.058;9.028;2023-07-22T21:47:45;12.60;;;9.95;;
24102;SDS011;12278;53.058;9.028;2023-07-22T21:51:46;13.95;;;10.55;;
24102;SDS011;12278;53.058;9.028;2023-07-22T21:55:46;13.50;;;9.90;;
24102;SDS011;12278;53.058;9.028;2023-07-22T21:59:47;14.30;;;10.52;;
24102;SDS011;12278;53.058;9.028;2023-07-22T22:03:47;13.20;;;10.80;;
24102;SDS011;12278;53.058;9.028;2023-07-22T22:07:48;11.02;;;9.90;;
24102;SDS011;12278;53.058;9.028;2023-07-22T22:11:49;14.63;;;11.63;;
24102;SDS011;12278;53.058;9.028;2023-07-22T22:15:50;14.48;;;11.05;;
24102;SDS011;12278;53.058;9.028;2023-07-22T22:19:51;15.00;;;11.32;;
24102;SDS011;12278;53.058;9.028;2023-07-22T22:23:51;13.52;;;10.70;;
24102;SDS011;12278;53.058;9.028;2023-07-22T22:27:52;11.68;;;10.10;;
24102;SDS011;12278;53.058;9.028;2023-07-22T22:31:52;15.05;;;10.68;;
24102;SDS011;12278;53.058;9.028;2023-07-22T22:35:54;14.07;;;10.25;;
24102;SDS011;12278;53.058;9.028;2023-07-22T22:39:55;14.38;;;9.98;;
24102;SDS011;12278;53.058;9.028;2023-07-22T22:43:56;13.30;;;10.70;;
24102;SDS011;12278;53.058;9.028;2023-07-22T22:47:56;10.73;;;9.45;;
24102;SDS011;12278;53.058;9.028;2023-07-22T22:51:57;12.35;;;9.82;;
24102;SDS011;12278;53.058;9.028;2023-07-22T22:55:58;14.90;;;10.57;;
24102;SDS011;12278;53.058;9.028;2023-07-22T23:00:03;11.98;;;9.82;;
24102;SDS011;12278;53.058;9.028;2023-07-22T23:04:05;15.65;;;11.07;;
24102;SDS011;12278;53.058;9.028;2023-07-22T23:08:05;13.32;;;10.13;;
24102;SDS011;12278;53.058;9.028;2023-07-22T23:12:06;13.07;;;10.40;;
24102;SDS011;12278;53.058;9.028;2023-07-22T23:16:07;12.35;;;10.70;;
24102;SDS011;12278;53.058;9.028;2023-07-22T23:20:08;15.85;;;11.00;;
24102;SDS011;12278;53.058;9.028;2023-07-22T23:24:09;12.20;;;10.43;;
24102;SDS011;12278;53.058;9.028;2023-07-22T23:28:09;13.90;;;10.68;;
24102;SDS011;12278;53.058;9.028;2023-07-22T23:32:10;15.07;;;11.25;;
24102;SDS011;12278;53.058;9.028;2023-07-22T23:36:11;12.35;;;10.18;;
24102;SDS011;12278;53.058;9.028;2023-07-22T23:40:11;14.00;;;11.13;;
24102;SDS011;12278;53.058;9.028;2023-07-22T23:44:13;13.52;;;11.80;;
24102;SDS011;12278;53.058;9.028;2023-07-22T23:48:14;13.45;;;10.38;;
24102;SDS011;12278;53.058;9.028;2023-07-22T23:52:14;14.00;;;11.20;;
24102;SDS011;12278;53.058;9.028;2023-07-22T23:56:15;11.27;;;10.07;;
